Terminal Aerodrome Forecast
Issued by NWS

Home | Current Version | Previous Version | Text Only | Print | Product List | Glossary On
Versions: 1 2 3 4 5 6 7 8 9 10 11 12 13 14 15 16 17 18 19 20
000
FTUS45 KLKN 270119 AAA
TAFEKO
TAF AMD
KEKO 270119Z 2701/2724 26015KT P6SM -SHRA VCTS SCT025CB BKN035
      TEMPO 2701/2703 2SM TSRA BKN020CB
     FM270400 29015KT P6SM BKN040
     FM271800 26018G28KT P6SM BKN050=

USA.gov is the U.S. government's official web portal to all federal, state and local government web resources and services.